sensor_id;sensor_type;location;lat;lon;timestamp;P1;durP1;ratioP1;P2;durP2;ratioP2
69744;SDS011;57015;50.120;-5.168;2023-02-28T00:02:14;4.57;;;1.80;;
69744;SDS011;57015;50.120;-5.168;2023-02-28T00:04:39;4.97;;;2.13;;
69744;SDS011;57015;50.120;-5.168;2023-02-28T00:07:04;4.77;;;2.00;;
69744;SDS011;57015;50.120;-5.168;2023-02-28T00:09:30;6.33;;;1.90;;
69744;SDS011;57015;50.120;-5.168;2023-02-28T00:11:55;7.00;;;2.30;;
69744;SDS011;57015;50.120;-5.168;2023-02-28T00:14:20;6.33;;;1.80;;
69744;SDS011;57015;50.120;-5.168;2023-02-28T00:16:46;7.00;;;2.07;;
69744;SDS011;57015;50.120;-5.168;2023-02-28T00:19:11;7.23;;;2.23;;
69744;SDS011;57015;50.120;-5.168;2023-02-28T00:21:38;6.03;;;2.40;;
69744;SDS011;57015;50.120;-5.168;2023-02-28T00:24:05;6.23;;;1.87;;
69744;SDS011;57015;50.120;-5.168;2023-02-28T00:26:31;3.90;;;1.52;;
69744;SDS011;57015;50.120;-5.168;2023-02-28T00:28:57;6.13;;;2.00;;
69744;SDS011;57015;50.120;-5.168;2023-02-28T00:31:22;6.97;;;2.13;;
69744;SDS011;57015;50.120;-5.168;2023-02-28T00:33:48;6.28;;;2.00;;
69744;SDS011;57015;50.120;-5.168;2023-02-28T00:36:13;4.73;;;1.60;;
69744;SDS011;57015;50.120;-5.168;2023-02-28T00:38:39;5.47;;;2.00;;
69744;SDS011;57015;50.120;-5.168;2023-02-28T00:41:05;5.38;;;1.85;;
69744;SDS011;57015;50.120;-5.168;2023-02-28T00:43:31;4.73;;;1.50;;
69744;SDS011;57015;50.120;-5.168;2023-02-28T00:45:57;7.00;;;1.48;;
69744;SDS011;57015;50.120;-5.168;2023-02-28T00:48:23;6.03;;;1.70;;
69744;SDS011;57015;50.120;-5.168;2023-02-28T00:50:49;4.10;;;1.70;;
69744;SDS011;57015;50.120;-5.168;2023-02-28T00:53:14;5.10;;;1.77;;
69744;SDS011;57015;50.120;-5.168;2023-02-28T00:55:40;4.40;;;1.57;;
69744;SDS011;57015;50.120;-5.168;2023-02-28T00:58:05;4.65;;;1.75;;
69744;SDS011;57015;50.120;-5.168;2023-02-28T01:00:30;5.60;;;2.05;;
69744;SDS011;57015;50.120;-5.168;2023-02-28T01:02:56;4.90;;;2.07;;
69744;SDS011;57015;50.120;-5.168;2023-02-28T01:05:21;6.90;;;1.90;;
69744;SDS011;57015;50.120;-5.168;2023-02-28T01:07:47;4.53;;;1.73;;
69744;SDS011;57015;50.120;-5.168;2023-02-28T01:10:12;4.33;;;1.80;;
69744;SDS011;57015;50.120;-5.168;2023-02-28T01:12:37;4.80;;;1.50;;
69744;SDS011;57015;50.120;-5.168;2023-02-28T01:15:03;5.20;;;1.80;;
69744;SDS011;57015;50.120;-5.168;2023-02-28T01:17:29;4.10;;;1.52;;
69744;SDS011;57015;50.120;-5.168;2023-02-28T01:19:55;5.60;;;1.50;;
69744;SDS011;57015;50.120;-5.168;2023-02-28T01:22:20;5.40;;;1.88;;
69744;SDS011;57015;50.120;-5.168;2023-02-28T01:24:46;4.03;;;1.73;;
69744;SDS011;57015;50.120;-5.168;2023-02-28T01:27:12;7.23;;;1.57;;
69744;SDS011;57015;50.120;-5.168;2023-02-28T01:29:38;5.95;;;1.73;;
69744;SDS011;57015;50.120;-5.168;2023-02-28T01:32:03;6.23;;;1.27;;
69744;SDS011;57015;50.120;-5.168;2023-02-28T01:34:29;4.53;;;1.30;;
69744;SDS011;57015;50.120;-5.168;2023-02-28T01:36:54;4.93;;;1.95;;
69744;SDS011;57015;50.120;-5.168;2023-02-28T01:39:20;5.50;;;2.00;;
69744;SDS011;57015;50.120;-5.168;2023-02-28T01:41:45;3.60;;;1.50;;
69744;SDS011;57015;50.120;-5.168;2023-02-28T01:47:13;4.00;;;1.23;;
69744;SDS011;57015;50.120;-5.168;2023-02-28T01:49:39;4.63;;;1.58;;
69744;SDS011;57015;50.120;-5.168;2023-02-28T01:52:05;4.33;;;1.50;;
69744;SDS011;57015;50.120;-5.168;2023-02-28T01:54:31;5.32;;;1.52;;
69744;SDS011;57015;50.120;-5.168;2023-02-28T01:57:00;5.37;;;1.50;;
69744;SDS011;57015;50.120;-5.168;2023-02-28T01:59:33;3.38;;;1.30;;
69744;SDS011;57015;50.120;-5.168;2023-02-28T02:02:00;5.53;;;1.58;;
69744;SDS011;57015;50.120;-5.168;2023-02-28T02:04:27;5.30;;;1.75;;
69744;SDS011;57015;50.120;-5.168;2023-02-28T02:06:58;4.22;;;1.80;;
69744;SDS011;57015;50.120;-5.168;2023-02-28T02:09:23;4.00;;;1.47;;
69744;SDS011;57015;50.120;-5.168;2023-02-28T02:11:48;5.63;;;1.83;;
69744;SDS011;57015;50.120;-5.168;2023-02-28T02:25:38;6.53;;;1.57;;
69744;SDS011;57015;50.120;-5.168;2023-02-28T02:36:27;4.25;;;1.63;;
69744;SDS011;57015;50.120;-5.168;2023-02-28T02:44:13;4.22;;;1.58;;
69744;SDS011;57015;50.120;-5.168;2023-02-28T02:47:03;5.75;;;1.75;;
69744;SDS011;57015;50.120;-5.168;2023-02-28T02:49:32;5.38;;;1.63;;
69744;SDS011;57015;50.120;-5.168;2023-02-28T02:52:03;5.63;;;1.90;;
69744;SDS011;57015;50.120;-5.168;2023-02-28T02:54:31;5.53;;;1.77;;
69744;SDS011;57015;50.120;-5.168;2023-02-28T02:57:00;5.05;;;1.73;;
69744;SDS011;57015;50.120;-5.168;2023-02-28T02:59:29;4.45;;;1.42;;
69744;SDS011;57015;50.120;-5.168;2023-02-28T03:01:56;5.45;;;2.00;;
69744;SDS011;57015;50.120;-5.168;2023-02-28T03:04:24;6.93;;;1.77;;
69744;SDS011;57015;50.120;-5.168;2023-02-28T03:06:50;4.70;;;2.00;;
69744;SDS011;57015;50.120;-5.168;2023-02-28T03:09:23;4.43;;;1.52;;
69744;SDS011;57015;50.120;-5.168;2023-02-28T03:11:49;6.68;;;1.75;;
69744;SDS011;57015;50.120;-5.168;2023-02-28T03:28:29;4.75;;;1.60;;
69744;SDS011;57015;50.120;-5.168;2023-02-28T03:33:29;4.57;;;1.10;;
69744;SDS011;57015;50.120;-5.168;2023-02-28T03:36:04;4.40;;;1.60;;
69744;SDS011;57015;50.120;-5.168;2023-02-28T03:38:37;3.55;;;1.08;;
69744;SDS011;57015;50.120;-5.168;2023-02-28T03:41:16;4.93;;;1.40;;
69744;SDS011;57015;50.120;-5.168;2023-02-28T03:43:53;4.20;;;1.20;;
69744;SDS011;57015;50.120;-5.168;2023-02-28T03:46:21;3.75;;;1.00;;
69744;SDS011;57015;50.120;-5.168;2023-02-28T03:48:54;6.30;;;2.38;;
69744;SDS011;57015;50.120;-5.168;2023-02-28T03:51:22;2.85;;;1.02;;
69744;SDS011;57015;50.120;-5.168;2023-02-28T03:54:09;6.10;;;1.33;;
69744;SDS011;57015;50.120;-5.168;2023-02-28T03:56:44;3.43;;;1.30;;
69744;SDS011;57015;50.120;-5.168;2023-02-28T03:59:27;3.72;;;1.00;;
69744;SDS011;57015;50.120;-5.168;2023-02-28T04:01:54;3.70;;;0.80;;
69744;SDS011;57015;50.120;-5.168;2023-02-28T04:04:20;3.95;;;1.10;;
69744;SDS011;57015;50.120;-5.168;2023-02-28T04:06:46;3.25;;;1.23;;
69744;SDS011;57015;50.120;-5.168;2023-02-28T04:09:14;2.65;;;1.17;;
69744;SDS011;57015;50.120;-5.168;2023-02-28T04:11:41;3.50;;;1.00;;
69744;SDS011;57015;50.120;-5.168;2023-02-28T04:14:08;3.30;;;1.30;;
69744;SDS011;57015;50.120;-5.168;2023-02-28T04:16:35;2.78;;;1.23;;
69744;SDS011;57015;50.120;-5.168;2023-02-28T04:19:02;5.47;;;1.10;;
69744;SDS011;57015;50.120;-5.168;2023-02-28T04:21:30;3.40;;;1.00;;
69744;SDS011;57015;50.120;-5.168;2023-02-28T04:23:57;2.80;;;1.03;;
69744;SDS011;57015;50.120;-5.168;2023-02-28T04:26:25;2.92;;;1.02;;
69744;SDS011;57015;50.120;-5.168;2023-02-28T04:28:57;3.80;;;1.40;;
69744;SDS011;57015;50.120;-5.168;2023-02-28T04:31:23;4.03;;;1.33;;
69744;SDS011;57015;50.120;-5.168;2023-02-28T04:33:49;4.40;;;1.40;;
69744;SDS011;57015;50.120;-5.168;2023-02-28T04:36:14;3.13;;;1.10;;
69744;SDS011;57015;50.120;-5.168;2023-02-28T04:38:42;4.13;;;1.40;;
69744;SDS011;57015;50.120;-5.168;2023-02-28T04:41:08;3.70;;;1.13;;
69744;SDS011;57015;50.120;-5.168;2023-02-28T04:43:33;5.57;;;1.20;;
69744;SDS011;57015;50.120;-5.168;2023-02-28T04:46:00;4.87;;;1.20;;
69744;SDS011;57015;50.120;-5.168;2023-02-28T04:48:27;4.57;;;1.23;;
69744;SDS011;57015;50.120;-5.168;2023-02-28T04:50:53;3.03;;;1.00;;
69744;SDS011;57015;50.120;-5.168;2023-02-28T04:53:19;2.83;;;1.10;;
69744;SDS011;57015;50.120;-5.168;2023-02-28T04:55:45;5.13;;;1.23;;
69744;SDS011;57015;50.120;-5.168;2023-02-28T04:58:11;4.10;;;1.07;;
69744;SDS011;57015;50.120;-5.168;2023-02-28T05:00:37;3.95;;;1.25;;
69744;SDS011;57015;50.120;-5.168;2023-02-28T05:03:02;3.70;;;1.17;;
69744;SDS011;57015;50.120;-5.168;2023-02-28T05:05:27;3.17;;;0.90;;
69744;SDS011;57015;50.120;-5.168;2023-02-28T05:07:53;3.27;;;1.13;;
69744;SDS011;57015;50.120;-5.168;2023-02-28T05:10:20;5.85;;;1.10;;
69744;SDS011;57015;50.120;-5.168;2023-02-28T05:12:46;3.50;;;0.90;;
69744;SDS011;57015;50.120;-5.168;2023-02-28T05:15:13;5.22;;;1.08;;
69744;SDS011;57015;50.120;-5.168;2023-02-28T05:17:39;3.43;;;0.90;;
69744;SDS011;57015;50.120;-5.168;2023-02-28T05:20:05;2.75;;;1.00;;
69744;SDS011;57015;50.120;-5.168;2023-02-28T05:22:31;3.63;;;1.00;;
69744;SDS011;57015;50.120;-5.168;2023-02-28T05:24:57;2.38;;;0.70;;
69744;SDS011;57015;50.120;-5.168;2023-02-28T05:27:22;3.85;;;1.35;;
69744;SDS011;57015;50.120;-5.168;2023-02-28T05:29:48;3.75;;;0.80;;
69744;SDS011;57015;50.120;-5.168;2023-02-28T05:32:14;4.37;;;1.17;;
69744;SDS011;57015;50.120;-5.168;2023-02-28T05:34:40;3.38;;;1.02;;
69744;SDS011;57015;50.120;-5.168;2023-02-28T05:37:07;4.27;;;1.20;;
69744;SDS011;57015;50.120;-5.168;2023-02-28T05:39:36;2.35;;;0.90;;
69744;SDS011;57015;50.120;-5.168;2023-02-28T05:42:02;3.00;;;0.70;;
69744;SDS011;57015;50.120;-5.168;2023-02-28T05:44:27;2.65;;;0.98;;
69744;SDS011;57015;50.120;-5.168;2023-02-28T05:46:53;4.83;;;1.40;;
69744;SDS011;57015;50.120;-5.168;2023-02-28T05:49:18;2.77;;;1.10;;
69744;SDS011;57015;50.120;-5.168;2023-02-28T05:51:44;5.50;;;1.27;;
69744;SDS011;57015;50.120;-5.168;2023-02-28T05:54:09;3.70;;;1.27;;
69744;SDS011;57015;50.120;-5.168;2023-02-28T05:56:34;3.77;;;1.30;;
69744;SDS011;57015;50.120;-5.168;2023-02-28T05:59:00;3.60;;;0.98;;
69744;SDS011;57015;50.120;-5.168;2023-02-28T06:01:36;4.37;;;1.63;;
69744;SDS011;57015;50.120;-5.168;2023-02-28T06:04:16;4.40;;;1.20;;
69744;SDS011;57015;50.120;-5.168;2023-02-28T06:06:47;3.03;;;1.35;;
69744;SDS011;57015;50.120;-5.168;2023-02-28T06:09:13;3.63;;;0.90;;
69744;SDS011;57015;50.120;-5.168;2023-02-28T06:11:39;3.27;;;1.10;;
69744;SDS011;57015;50.120;-5.168;2023-02-28T06:14:04;3.53;;;1.20;;
69744;SDS011;57015;50.120;-5.168;2023-02-28T06:16:31;5.20;;;1.13;;
69744;SDS011;57015;50.120;-5.168;2023-02-28T06:18:58;3.90;;;1.20;;
69744;SDS011;57015;50.120;-5.168;2023-02-28T06:21:25;3.60;;;1.25;;
69744;SDS011;57015;50.120;-5.168;2023-02-28T06:23:52;5.00;;;1.40;;
69744;SDS011;57015;50.120;-5.168;2023-02-28T06:26:18;3.85;;;1.45;;
69744;SDS011;57015;50.120;-5.168;2023-02-28T06:28:44;2.97;;;0.97;;
69744;SDS011;57015;50.120;-5.168;2023-02-28T06:31:11;4.05;;;1.27;;
69744;SDS011;57015;50.120;-5.168;2023-02-28T06:33:38;6.67;;;1.10;;
69744;SDS011;57015;50.120;-5.168;2023-02-28T06:36:04;5.63;;;1.70;;
69744;SDS011;57015;50.120;-5.168;2023-02-28T06:38:31;3.17;;;1.60;;
69744;SDS011;57015;50.120;-5.168;2023-02-28T06:40:57;3.78;;;1.38;;
69744;SDS011;57015;50.120;-5.168;2023-02-28T06:43:24;5.03;;;1.55;;
69744;SDS011;57015;50.120;-5.168;2023-02-28T06:45:50;3.67;;;1.50;;
69744;SDS011;57015;50.120;-5.168;2023-02-28T06:48:15;4.57;;;1.23;;
69744;SDS011;57015;50.120;-5.168;2023-02-28T06:50:41;3.83;;;1.77;;
69744;SDS011;57015;50.120;-5.168;2023-02-28T06:53:07;4.10;;;1.95;;
69744;SDS011;57015;50.120;-5.168;2023-02-28T06:55:32;5.33;;;1.87;;
69744;SDS011;57015;50.120;-5.168;2023-02-28T06:57:58;4.77;;;1.17;;
69744;SDS011;57015;50.120;-5.168;2023-02-28T07:00:23;8.27;;;1.70;;
69744;SDS011;57015;50.120;-5.168;2023-02-28T07:02:50;4.03;;;1.33;;
69744;SDS011;57015;50.120;-5.168;2023-02-28T07:05:15;4.90;;;1.52;;
69744;SDS011;57015;50.120;-5.168;2023-02-28T07:07:40;4.43;;;1.60;;
69744;SDS011;57015;50.120;-5.168;2023-02-28T07:10:09;4.83;;;1.23;;
69744;SDS011;57015;50.120;-5.168;2023-02-28T07:12:36;4.20;;;1.73;;
69744;SDS011;57015;50.120;-5.168;2023-02-28T07:15:02;4.68;;;1.70;;
69744;SDS011;57015;50.120;-5.168;2023-02-28T07:17:28;7.00;;;2.13;;
69744;SDS011;57015;50.120;-5.168;2023-02-28T07:19:53;5.67;;;1.47;;
69744;SDS011;57015;50.120;-5.168;2023-02-28T07:22:18;4.90;;;1.63;;
69744;SDS011;57015;50.120;-5.168;2023-02-28T07:24:44;5.77;;;1.80;;
69744;SDS011;57015;50.120;-5.168;2023-02-28T07:27:09;4.90;;;1.40;;
69744;SDS011;57015;50.120;-5.168;2023-02-28T07:29:34;4.33;;;1.53;;
69744;SDS011;57015;50.120;-5.168;2023-02-28T07:32:00;3.60;;;1.10;;
69744;SDS011;57015;50.120;-5.168;2023-02-28T07:34:25;3.10;;;1.40;;
69744;SDS011;57015;50.120;-5.168;2023-02-28T07:36:52;4.07;;;1.35;;
69744;SDS011;57015;50.120;-5.168;2023-02-28T07:39:19;5.00;;;1.40;;
69744;SDS011;57015;50.120;-5.168;2023-02-28T07:41:44;6.35;;;1.30;;
69744;SDS011;57015;50.120;-5.168;2023-02-28T07:44:10;7.00;;;1.80;;
69744;SDS011;57015;50.120;-5.168;2023-02-28T07:46:36;6.25;;;1.60;;
69744;SDS011;57015;50.120;-5.168;2023-02-28T07:49:01;5.70;;;1.50;;
69744;SDS011;57015;50.120;-5.168;2023-02-28T07:51:28;5.95;;;1.10;;
69744;SDS011;57015;50.120;-5.168;2023-02-28T07:53:54;6.60;;;1.50;;
69744;SDS011;57015;50.120;-5.168;2023-02-28T07:56:19;6.20;;;1.20;;
69744;SDS011;57015;50.120;-5.168;2023-02-28T07:58:44;3.63;;;1.40;;
69744;SDS011;57015;50.120;-5.168;2023-02-28T08:01:10;3.23;;;1.00;;
69744;SDS011;57015;50.120;-5.168;2023-02-28T08:03:36;3.55;;;0.95;;
69744;SDS011;57015;50.120;-5.168;2023-02-28T08:06:06;4.77;;;0.80;;
69744;SDS011;57015;50.120;-5.168;2023-02-28T08:08:32;4.03;;;1.20;;
69744;SDS011;57015;50.120;-5.168;2023-02-28T08:11:01;3.92;;;1.00;;
69744;SDS011;57015;50.120;-5.168;2023-02-28T08:13:28;4.07;;;0.70;;
69744;SDS011;57015;50.120;-5.168;2023-02-28T08:15:54;4.32;;;1.15;;
69744;SDS011;57015;50.120;-5.168;2023-02-28T08:18:21;8.23;;;1.23;;
69744;SDS011;57015;50.120;-5.168;2023-02-28T08:20:47;2.88;;;0.73;;
69744;SDS011;57015;50.120;-5.168;2023-02-28T08:23:12;4.47;;;1.23;;
69744;SDS011;57015;50.120;-5.168;2023-02-28T08:25:38;5.80;;;0.90;;
69744;SDS011;57015;50.120;-5.168;2023-02-28T08:28:03;3.70;;;0.88;;
69744;SDS011;57015;50.120;-5.168;2023-02-28T08:30:29;2.93;;;0.73;;
69744;SDS011;57015;50.120;-5.168;2023-02-28T08:32:54;5.27;;;0.93;;
69744;SDS011;57015;50.120;-5.168;2023-02-28T08:35:20;3.47;;;0.80;;
69744;SDS011;57015;50.120;-5.168;2023-02-28T08:37:49;2.08;;;0.70;;
69744;SDS011;57015;50.120;-5.168;2023-02-28T08:40:15;4.38;;;0.93;;
69744;SDS011;57015;50.120;-5.168;2023-02-28T08:42:46;3.85;;;1.10;;
69744;SDS011;57015;50.120;-5.168;2023-02-28T08:45:13;3.30;;;0.60;;
69744;SDS011;57015;50.120;-5.168;2023-02-28T08:47:39;4.87;;;0.53;;
69744;SDS011;57015;50.120;-5.168;2023-02-28T08:50:04;5.88;;;0.82;;
69744;SDS011;57015;50.120;-5.168;2023-02-28T08:52:30;7.37;;;0.80;;
69744;SDS011;57015;50.120;-5.168;2023-02-28T08:54:56;3.65;;;0.60;;
69744;SDS011;57015;50.120;-5.168;2023-02-28T08:57:21;6.22;;;1.20;;
69744;SDS011;57015;50.120;-5.168;2023-02-28T08:59:46;2.97;;;0.50;;
69744;SDS011;57015;50.120;-5.168;2023-02-28T09:02:13;3.77;;;0.77;;
69744;SDS011;57015;50.120;-5.168;2023-02-28T09:04:39;3.13;;;0.50;;
69744;SDS011;57015;50.120;-5.168;2023-02-28T09:07:05;2.42;;;0.50;;
69744;SDS011;57015;50.120;-5.168;2023-02-28T09:09:30;3.03;;;0.53;;
69744;SDS011;57015;50.120;-5.168;2023-02-28T09:11:56;3.93;;;0.73;;
69744;SDS011;57015;50.120;-5.168;2023-02-28T09:14:22;4.95;;;0.55;;
69744;SDS011;57015;50.120;-5.168;2023-02-28T09:16:47;2.13;;;0.60;;
69744;SDS011;57015;50.120;-5.168;2023-02-28T09:19:13;5.55;;;0.98;;
69744;SDS011;57015;50.120;-5.168;2023-02-28T09:21:40;2.20;;;0.63;;
69744;SDS011;57015;50.120;-5.168;2023-02-28T09:24:05;3.05;;;0.50;;
69744;SDS011;57015;50.120;-5.168;2023-02-28T09:26:31;3.53;;;0.90;;
69744;SDS011;57015;50.120;-5.168;2023-02-28T09:28:56;3.13;;;0.50;;
69744;SDS011;57015;50.120;-5.168;2023-02-28T09:31:24;2.75;;;0.75;;
69744;SDS011;57015;50.120;-5.168;2023-02-28T09:33:52;3.65;;;0.82;;
69744;SDS011;57015;50.120;-5.168;2023-02-28T09:36:19;6.90;;;0.75;;
69744;SDS011;57015;50.120;-5.168;2023-02-28T09:38:44;3.80;;;0.70;;
69744;SDS011;57015;50.120;-5.168;2023-02-28T09:41:21;4.80;;;0.60;;
69744;SDS011;57015;50.120;-5.168;2023-02-28T09:43:52;4.70;;;0.75;;
69744;SDS011;57015;50.120;-5.168;2023-02-28T09:46:33;2.90;;;0.52;;
69744;SDS011;57015;50.120;-5.168;2023-02-28T09:49:04;2.65;;;0.50;;
69744;SDS011;57015;50.120;-5.168;2023-02-28T09:54:11;1.88;;;0.55;;
69744;SDS011;57015;50.120;-5.168;2023-02-28T09:56:44;3.80;;;0.60;;
69744;SDS011;57015;50.120;-5.168;2023-02-28T09:59:14;1.85;;;0.55;;
69744;SDS011;57015;50.120;-5.168;2023-02-28T10:07:00;3.20;;;0.40;;
69744;SDS011;57015;50.120;-5.168;2023-02-28T10:09:32;2.90;;;0.55;;
69744;SDS011;57015;50.120;-5.168;2023-02-28T10:12:04;3.42;;;0.40;;
69744;SDS011;57015;50.120;-5.168;2023-02-28T10:14:31;2.38;;;0.50;;
69744;SDS011;57015;50.120;-5.168;2023-02-28T10:17:03;1.67;;;0.30;;
69744;SDS011;57015;50.120;-5.168;2023-02-28T10:19:42;1.60;;;0.30;;
69744;SDS011;57015;50.120;-5.168;2023-02-28T10:22:16;1.33;;;0.30;;
69744;SDS011;57015;50.120;-5.168;2023-02-28T10:24:45;1.42;;;0.30;;
69744;SDS011;57015;50.120;-5.168;2023-02-28T10:27:19;2.05;;;0.30;;
69744;SDS011;57015;50.120;-5.168;2023-02-28T10:29:50;1.93;;;0.23;;
69744;SDS011;57015;50.120;-5.168;2023-02-28T10:32:21;1.17;;;0.20;;
69744;SDS011;57015;50.120;-5.168;2023-02-28T10:34:52;1.83;;;0.28;;
69744;SDS011;57015;50.120;-5.168;2023-02-28T10:37:22;1.52;;;0.20;;
69744;SDS011;57015;50.120;-5.168;2023-02-28T10:39:47;2.23;;;0.40;;
69744;SDS011;57015;50.120;-5.168;2023-02-28T10:42:20;0.90;;;0.20;;
69744;SDS011;57015;50.120;-5.168;2023-02-28T10:44:55;0.80;;;0.20;;
69744;SDS011;57015;50.120;-5.168;2023-02-28T10:47:51;1.80;;;0.20;;
69744;SDS011;57015;50.120;-5.168;2023-02-28T10:52:55;1.77;;;0.40;;
69744;SDS011;57015;50.120;-5.168;2023-02-28T10:55:35;2.17;;;0.40;;
69744;SDS011;57015;50.120;-5.168;2023-02-28T10:58:01;2.90;;;0.40;;
69744;SDS011;57015;50.120;-5.168;2023-02-28T11:00:31;1.57;;;0.57;;
69744;SDS011;57015;50.120;-5.168;2023-02-28T11:02:58;1.52;;;0.47;;
69744;SDS011;57015;50.120;-5.168;2023-02-28T11:07:56;2.78;;;0.57;;
69744;SDS011;57015;50.120;-5.168;2023-02-28T11:10:25;5.82;;;0.57;;
69744;SDS011;57015;50.120;-5.168;2023-02-28T11:12:54;1.70;;;0.43;;
69744;SDS011;57015;50.120;-5.168;2023-02-28T11:15:24;1.30;;;0.60;;
69744;SDS011;57015;50.120;-5.168;2023-02-28T11:17:55;2.45;;;0.20;;
69744;SDS011;57015;50.120;-5.168;2023-02-28T11:20:36;3.50;;;0.50;;
69744;SDS011;57015;50.120;-5.168;2023-02-28T11:23:02;2.53;;;0.40;;
69744;SDS011;57015;50.120;-5.168;2023-02-28T11:25:33;3.92;;;1.15;;
69744;SDS011;57015;50.120;-5.168;2023-02-28T11:28:01;2.72;;;0.80;;
69744;SDS011;57015;50.120;-5.168;2023-02-28T11:36:21;3.53;;;0.75;;
69744;SDS011;57015;50.120;-5.168;2023-02-28T11:38:53;1.58;;;0.65;;
69744;SDS011;57015;50.120;-5.168;2023-02-28T12:03:33;4.68;;;1.00;;
69744;SDS011;57015;50.120;-5.168;2023-02-28T12:06:22;3.50;;;1.17;;
69744;SDS011;57015;50.120;-5.168;2023-02-28T12:11:55;1.80;;;1.00;;
69744;SDS011;57015;50.120;-5.168;2023-02-28T12:14:39;2.67;;;1.02;;
69744;SDS011;57015;50.120;-5.168;2023-02-28T12:28:21;2.50;;;0.90;;
69744;SDS011;57015;50.120;-5.168;2023-02-28T12:33:36;2.47;;;0.75;;
69744;SDS011;57015;50.120;-5.168;2023-02-28T12:36:09;2.47;;;0.85;;
69744;SDS011;57015;50.120;-5.168;2023-02-28T12:38:44;2.40;;;0.73;;
69744;SDS011;57015;50.120;-5.168;2023-02-28T12:41:13;2.45;;;0.80;;
69744;SDS011;57015;50.120;-5.168;2023-02-28T12:43:43;2.60;;;0.70;;
69744;SDS011;57015;50.120;-5.168;2023-02-28T12:46:12;2.85;;;0.70;;
69744;SDS011;57015;50.120;-5.168;2023-02-28T12:48:59;2.05;;;0.93;;
69744;SDS011;57015;50.120;-5.168;2023-02-28T12:51:27;2.07;;;0.87;;
69744;SDS011;57015;50.120;-5.168;2023-02-28T13:04:38;4.90;;;1.27;;
69744;SDS011;57015;50.120;-5.168;2023-02-28T13:07:52;3.28;;;0.80;;
69744;SDS011;57015;50.120;-5.168;2023-02-28T13:10:16;2.72;;;0.90;;
69744;SDS011;57015;50.120;-5.168;2023-02-28T13:12:50;2.50;;;0.80;;
69744;SDS011;57015;50.120;-5.168;2023-02-28T13:17:50;2.10;;;0.60;;
69744;SDS011;57015;50.120;-5.168;2023-02-28T13:20:18;2.15;;;0.73;;
69744;SDS011;57015;50.120;-5.168;2023-02-28T13:22:47;2.20;;;0.77;;
69744;SDS011;57015;50.120;-5.168;2023-02-28T13:27:58;2.55;;;0.98;;
69744;SDS011;57015;50.120;-5.168;2023-02-28T14:05:20;4.07;;;0.88;;
69744;SDS011;57015;50.120;-5.168;2023-02-28T14:07:51;2.03;;;0.80;;
69744;SDS011;57015;50.120;-5.168;2023-02-28T14:10:23;2.27;;;0.83;;
69744;SDS011;57015;50.120;-5.168;2023-02-28T14:15:36;3.00;;;0.70;;
69744;SDS011;57015;50.120;-5.168;2023-02-28T14:18:24;1.88;;;0.57;;
69744;SDS011;57015;50.120;-5.168;2023-02-28T14:20:52;2.88;;;1.00;;
69744;SDS011;57015;50.120;-5.168;2023-02-28T14:34:05;3.30;;;1.13;;
69744;SDS011;57015;50.120;-5.168;2023-02-28T14:36:42;3.07;;;1.20;;
69744;SDS011;57015;50.120;-5.168;2023-02-28T14:41:38;5.32;;;1.20;;
69744;SDS011;57015;50.120;-5.168;2023-02-28T14:46:40;15.73;;;7.22;;
69744;SDS011;57015;50.120;-5.168;2023-02-28T14:49:11;15.67;;;7.87;;
69744;SDS011;57015;50.120;-5.168;2023-02-28T14:51:39;12.13;;;6.22;;
69744;SDS011;57015;50.120;-5.168;2023-02-28T14:54:04;13.33;;;6.27;;
69744;SDS011;57015;50.120;-5.168;2023-02-28T14:56:36;10.23;;;5.00;;
69744;SDS011;57015;50.120;-5.168;2023-02-28T14:59:03;10.63;;;4.17;;
69744;SDS011;57015;50.120;-5.168;2023-02-28T15:01:29;10.38;;;3.90;;
69744;SDS011;57015;50.120;-5.168;2023-02-28T15:04:04;11.48;;;3.90;;
69744;SDS011;57015;50.120;-5.168;2023-02-28T15:06:30;6.85;;;3.00;;
69744;SDS011;57015;50.120;-5.168;2023-02-28T15:09:09;6.18;;;2.67;;
69744;SDS011;57015;50.120;-5.168;2023-02-28T15:11:42;7.43;;;2.47;;
69744;SDS011;57015;50.120;-5.168;2023-02-28T15:14:19;7.60;;;3.85;;
69744;SDS011;57015;50.120;-5.168;2023-02-28T15:16:46;7.18;;;2.90;;
69744;SDS011;57015;50.120;-5.168;2023-02-28T15:19:29;5.60;;;2.38;;
69744;SDS011;57015;50.120;-5.168;2023-02-28T15:22:08;5.65;;;1.88;;
69744;SDS011;57015;50.120;-5.168;2023-02-28T15:24:47;6.70;;;2.00;;
69744;SDS011;57015;50.120;-5.168;2023-02-28T15:27:25;3.70;;;1.42;;
69744;SDS011;57015;50.120;-5.168;2023-02-28T15:29:57;5.32;;;1.48;;
69744;SDS011;57015;50.120;-5.168;2023-02-28T15:32:34;5.50;;;1.38;;
69744;SDS011;57015;50.120;-5.168;2023-02-28T15:35:43;3.97;;;1.50;;
69744;SDS011;57015;50.120;-5.168;2023-02-28T15:37:57;7.07;;;1.70;;
69744;SDS011;57015;50.120;-5.168;2023-02-28T15:40:37;4.65;;;1.20;;
69744;SDS011;57015;50.120;-5.168;2023-02-28T15:43:06;4.80;;;1.90;;
69744;SDS011;57015;50.120;-5.168;2023-02-28T15:45:47;5.03;;;2.10;;
69744;SDS011;57015;50.120;-5.168;2023-02-28T15:48:21;7.13;;;2.00;;
69744;SDS011;57015;50.120;-5.168;2023-02-28T15:50:50;8.60;;;2.27;;
69744;SDS011;57015;50.120;-5.168;2023-02-28T15:53:21;8.88;;;2.28;;
69744;SDS011;57015;50.120;-5.168;2023-02-28T15:55:58;5.47;;;2.03;;
69744;SDS011;57015;50.120;-5.168;2023-02-28T15:58:25;6.35;;;1.63;;
69744;SDS011;57015;50.120;-5.168;2023-02-28T16:03:53;6.28;;;2.47;;
69744;SDS011;57015;50.120;-5.168;2023-02-28T16:08:51;8.50;;;2.35;;
69744;SDS011;57015;50.120;-5.168;2023-02-28T16:11:18;6.00;;;1.90;;
69744;SDS011;57015;50.120;-5.168;2023-02-28T16:13:44;3.53;;;1.10;;
69744;SDS011;57015;50.120;-5.168;2023-02-28T16:16:14;5.73;;;2.03;;
69744;SDS011;57015;50.120;-5.168;2023-02-28T16:18:41;5.47;;;2.30;;
69744;SDS011;57015;50.120;-5.168;2023-02-28T16:21:08;5.03;;;2.10;;
69744;SDS011;57015;50.120;-5.168;2023-02-28T16:23:33;4.32;;;1.77;;
69744;SDS011;57015;50.120;-5.168;2023-02-28T16:25:59;6.43;;;1.90;;
69744;SDS011;57015;50.120;-5.168;2023-02-28T16:28:25;5.33;;;1.80;;
69744;SDS011;57015;50.120;-5.168;2023-02-28T16:30:57;5.18;;;1.30;;
69744;SDS011;57015;50.120;-5.168;2023-02-28T16:33:23;4.15;;;1.40;;
69744;SDS011;57015;50.120;-5.168;2023-02-28T16:35:49;4.60;;;1.63;;
69744;SDS011;57015;50.120;-5.168;2023-02-28T16:38:14;7.50;;;1.60;;
69744;SDS011;57015;50.120;-5.168;2023-02-28T16:40:40;9.47;;;1.37;;
69744;SDS011;57015;50.120;-5.168;2023-02-28T16:43:07;6.50;;;2.10;;
69744;SDS011;57015;50.120;-5.168;2023-02-28T16:45:37;4.90;;;1.38;;
69744;SDS011;57015;50.120;-5.168;2023-02-28T16:48:02;4.90;;;1.13;;
69744;SDS011;57015;50.120;-5.168;2023-02-28T16:50:29;5.37;;;1.33;;
69744;SDS011;57015;50.120;-5.168;2023-02-28T16:52:55;5.35;;;1.70;;
69744;SDS011;57015;50.120;-5.168;2023-02-28T16:55:24;3.55;;;0.95;;
69744;SDS011;57015;50.120;-5.168;2023-02-28T16:57:51;4.80;;;0.90;;
69744;SDS011;57015;50.120;-5.168;2023-02-28T17:00:18;3.60;;;1.10;;
69744;SDS011;57015;50.120;-5.168;2023-02-28T17:02:44;3.58;;;0.80;;
69744;SDS011;57015;50.120;-5.168;2023-02-28T17:05:13;3.50;;;0.97;;
69744;SDS011;57015;50.120;-5.168;2023-02-28T17:07:40;2.45;;;0.70;;
69744;SDS011;57015;50.120;-5.168;2023-02-28T17:10:28;3.22;;;1.27;;
69744;SDS011;57015;50.120;-5.168;2023-02-28T17:12:53;4.00;;;1.00;;
69744;SDS011;57015;50.120;-5.168;2023-02-28T17:15:19;3.93;;;1.07;;
69744;SDS011;57015;50.120;-5.168;2023-02-28T17:17:45;3.92;;;1.17;;
69744;SDS011;57015;50.120;-5.168;2023-02-28T17:20:21;4.77;;;1.30;;
69744;SDS011;57015;50.120;-5.168;2023-02-28T17:22:51;4.70;;;1.13;;
69744;SDS011;57015;50.120;-5.168;2023-02-28T17:25:20;4.55;;;1.40;;
69744;SDS011;57015;50.120;-5.168;2023-02-28T17:27:45;4.37;;;0.90;;
69744;SDS011;57015;50.120;-5.168;2023-02-28T17:30:21;8.77;;;1.20;;
69744;SDS011;57015;50.120;-5.168;2023-02-28T17:32:48;5.53;;;1.17;;
69744;SDS011;57015;50.120;-5.168;2023-02-28T17:35:13;4.40;;;1.00;;
69744;SDS011;57015;50.120;-5.168;2023-02-28T17:37:39;3.83;;;1.10;;
69744;SDS011;57015;50.120;-5.168;2023-02-28T17:40:05;5.25;;;1.75;;